Villa Rica, Georgia
Current Conditions -  °F | °C
As of 11:55 AM on Tuesday 27 Jan 2015 (Local Time) from KPUJ Reporting Station
Broken Clouds Broken Clouds  
Wind Chill: 41°   Ceiling: 3800
Heat Index: 46°   Visibility: 10mi
Dew Point: 36°   Wind: 13mph
Humidity: 66%   Direction: 340°NNW
Pressure: 29.95"   Gusts: 25mph
Location:  33.73°N, 84.92°W
Report Text: KPUJ 271655Z AUTO 34011G22KT 10SM SCT030 BKN038 BKN044 08/02 A2995 RMK AO2
Loading
Personal Weather Stations






























Interactive Weather Map New forecast layout! Learn more

10-Day Weather Forecast

Advertisements
Track Severe Weather on mobile